createdAt,value
2023-04-07T00:01:35.568Z,19.75
2023-04-07T00:04:02.946Z,16.50
2023-04-07T00:06:30.139Z,14.45
2023-04-07T00:08:56.929Z,17.73
2023-04-07T00:11:23.747Z,15.15
2023-04-07T00:13:51.919Z,18.73
2023-04-07T00:16:19.121Z,18.85
2023-04-07T00:18:46.298Z,19.73
2023-04-07T00:21:13.162Z,18.15
2023-04-07T00:23:40.049Z,21.83
2023-04-07T00:26:06.905Z,18.10
2023-04-07T00:28:33.696Z,16.73
2023-04-07T00:31:00.760Z,18.40
2023-04-07T00:33:27.578Z,19.67
2023-04-07T00:35:54.496Z,17.90
2023-04-07T00:38:21.716Z,21.05
2023-04-07T00:40:48.583Z,18.45
2023-04-07T00:43:15.594Z,18.38
2023-04-07T00:45:42.884Z,19.40
2023-04-07T00:48:10.825Z,18.25
2023-04-07T00:50:37.641Z,19.92
2023-04-07T00:53:05.681Z,22.58
2023-04-07T00:55:32.566Z,19.20
2023-04-07T00:57:59.404Z,22.70
2023-04-07T01:00:28.033Z,19.60
2023-04-07T01:03:14.531Z,22.30
2023-04-07T01:05:41.624Z,14.25
2023-04-07T01:08:25.577Z,16.77
2023-04-07T01:10:54.509Z,19.45
2023-04-07T01:13:38.679Z,20.63
2023-04-07T01:16:11.449Z,18.88
2023-04-07T01:18:40.352Z,19.27
2023-04-07T01:21:13.982Z,19.27
2023-04-07T01:23:51.860Z,24.33
2023-04-07T01:26:33.483Z,15.30
2023-04-07T01:29:33.989Z,20.92
2023-04-07T01:32:04.293Z,20.88
2023-04-07T01:34:32.931Z,20.08
2023-04-07T01:37:02.485Z,19.73
2023-04-07T01:39:30.387Z,20.73
2023-04-07T01:41:58.184Z,16.88
2023-04-07T01:44:27.530Z,16.73
2023-04-07T01:46:55.652Z,19.55
2023-04-07T01:49:23.385Z,20.27
2023-04-07T01:51:51.422Z,19.85
2023-04-07T01:54:19.004Z,19.23
2023-04-07T01:56:46.102Z,17.98
2023-04-07T01:59:13.462Z,19.25
2023-04-07T02:01:40.793Z,19.25
2023-04-07T02:04:19.977Z,20.73
2023-04-07T02:06:59.434Z,18.80
2023-04-07T02:09:29.492Z,18.10
2023-04-07T02:11:59.919Z,17.85
2023-04-07T02:14:28.080Z,19.58
2023-04-07T02:16:56.323Z,21.30
2023-04-07T02:19:23.652Z,17.48
2023-04-07T02:21:52.401Z,21.20
2023-04-07T02:24:22.232Z,19.38
2023-04-07T02:26:49.212Z,20.63
2023-04-07T02:29:21.766Z,16.58
2023-04-07T02:31:48.627Z,16.98
2023-04-07T02:34:15.567Z,19.90
2023-04-07T02:36:42.420Z,18.55
2023-04-07T02:39:10.467Z,25.58
2023-04-07T02:41:37.357Z,18.55
2023-04-07T02:44:04.181Z,24.13
2023-04-07T02:46:31.196Z,21.95
2023-04-07T02:48:58.034Z,16.65
2023-04-07T02:51:24.941Z,22.70
2023-04-07T02:53:51.767Z,20.83
2023-04-07T02:56:18.637Z,20.05
2023-04-07T02:58:45.665Z,19.50
2023-04-07T03:01:12.515Z,18.73
2023-04-07T03:03:39.718Z,18.05
2023-04-07T03:06:06.650Z,20.40
2023-04-07T03:08:33.711Z,21.70
2023-04-07T03:11:00.564Z,18.13
2023-04-07T03:13:27.867Z,20.45
2023-04-07T03:15:54.775Z,22.15
2023-04-07T03:18:21.604Z,21.40
2023-04-07T03:20:49.433Z,19.25
2023-04-07T03:23:16.458Z,18.75
2023-04-07T03:25:43.458Z,15.82
2023-04-07T03:28:10.449Z,16.95
2023-04-07T03:30:37.628Z,28.45
2023-04-07T03:33:04.618Z,19.95
2023-04-07T03:35:31.758Z,21.00
2023-04-07T03:37:58.546Z,19.30
2023-04-07T03:40:25.290Z,15.60
2023-04-07T03:42:52.067Z,17.60
2023-04-07T03:45:18.886Z,18.88
2023-04-07T03:47:45.747Z,20.67
2023-04-07T03:50:12.596Z,19.92
2023-04-07T03:52:39.425Z,20.00
2023-04-07T03:55:06.861Z,23.00
2023-04-07T03:57:33.695Z,18.02
2023-04-07T04:00:00.550Z,19.65
2023-04-07T04:02:27.458Z,22.25
2023-04-07T04:04:54.387Z,20.40
2023-04-07T04:07:21.272Z,19.98
2023-04-07T04:09:48.153Z,18.10
2023-04-07T04:12:14.936Z,23.60
2023-04-07T04:14:41.728Z,19.25
2023-04-07T04:17:08.643Z,17.70
2023-04-07T04:19:35.733Z,21.27
2023-04-07T04:22:02.542Z,16.83
2023-04-07T04:24:29.363Z,20.20
2023-04-07T04:26:56.790Z,19.02
2023-04-07T04:29:23.745Z,18.83
2023-04-07T04:31:50.756Z,18.90
2023-04-07T04:34:17.787Z,19.17
2023-04-07T04:36:44.739Z,19.45
2023-04-07T04:39:11.649Z,18.58
2023-04-07T04:41:38.560Z,16.35
2023-04-07T04:44:05.410Z,21.50
2023-04-07T04:46:32.595Z,16.98
2023-04-07T04:48:59.509Z,20.30
2023-04-07T04:51:26.404Z,20.75
2023-04-07T04:53:53.404Z,15.70
2023-04-07T04:56:21.317Z,19.95
2023-04-07T04:58:48.162Z,15.35
2023-04-07T05:01:15.054Z,15.13
2023-04-07T05:03:42.284Z,23.17
2023-04-07T05:06:09.413Z,16.77
2023-04-07T05:08:36.198Z,20.67
2023-04-07T05:11:03.061Z,15.35
2023-04-07T05:13:31.074Z,19.98
2023-04-07T05:15:57.960Z,16.85
2023-04-07T05:18:24.925Z,20.80
2023-04-07T05:20:51.797Z,19.92
2023-04-07T05:23:18.640Z,21.23
2023-04-07T05:25:45.437Z,18.67
2023-04-07T05:28:12.263Z,17.75
2023-04-07T05:30:39.092Z,18.40
2023-04-07T05:33:06.170Z,20.02
2023-04-07T05:35:33.081Z,23.98
2023-04-07T05:37:59.888Z,20.05
2023-04-07T05:40:26.865Z,18.95
2023-04-07T05:42:53.685Z,19.85
2023-04-07T05:45:20.556Z,20.33
2023-04-07T05:47:50.560Z,20.98
2023-04-07T05:50:18.198Z,15.50
2023-04-07T05:52:45.270Z,23.60
2023-04-07T05:55:12.352Z,19.85
2023-04-07T05:57:39.174Z,23.05
2023-04-07T06:00:06.821Z,19.88
2023-04-07T06:02:33.804Z,22.00
2023-04-07T06:05:00.757Z,18.27
2023-04-07T06:07:27.583Z,19.65
2023-04-07T06:09:54.605Z,20.30
2023-04-07T06:12:21.621Z,19.63
2023-04-07T06:14:53.774Z,25.40
2023-04-07T06:17:20.750Z,20.00
2023-04-07T06:19:47.721Z,20.38
2023-04-07T06:22:14.620Z,20.23
2023-04-07T06:24:41.579Z,20.38
2023-04-07T06:27:08.706Z,18.52
2023-04-07T06:29:35.946Z,18.10
2023-04-07T06:32:02.851Z,19.85
2023-04-07T06:34:29.776Z,19.98
2023-04-07T06:36:58.085Z,19.20
2023-04-07T06:39:27.416Z,18.45
2023-04-07T06:41:54.223Z,18.73
2023-04-07T06:44:21.012Z,16.73
2023-04-07T06:46:51.514Z,20.48
2023-04-07T06:49:18.382Z,18.13
2023-04-07T06:51:45.334Z,16.85
2023-04-07T06:54:14.051Z,14.27
2023-04-07T06:56:41.641Z,16.90
2023-04-07T06:59:08.933Z,19.27
2023-04-07T07:01:36.000Z,16.33
2023-04-07T07:04:03.271Z,17.48
2023-04-07T07:06:31.660Z,16.50
2023-04-07T07:08:58.786Z,18.13
2023-04-07T07:11:25.875Z,23.77
2023-04-07T07:13:52.753Z,15.68
2023-04-07T07:16:19.609Z,17.20
2023-04-07T07:18:46.496Z,14.73
2023-04-07T07:21:13.826Z,15.93
2023-04-07T07:23:40.665Z,16.58
2023-04-07T07:26:07.524Z,18.33
2023-04-07T07:28:34.492Z,16.00
2023-04-07T07:31:01.378Z,19.27
2023-04-07T07:33:28.254Z,16.08
2023-04-07T07:35:55.118Z,17.02
2023-04-07T07:38:21.992Z,20.42
2023-04-07T07:40:48.854Z,17.30
2023-04-07T07:43:15.804Z,19.13
2023-04-07T07:45:43.062Z,12.50
2023-04-07T07:48:09.889Z,18.88
2023-04-07T07:50:36.733Z,18.92
2023-04-07T07:53:03.628Z,21.17
2023-04-07T07:55:30.522Z,15.88
2023-04-07T07:57:57.602Z,14.80
2023-04-07T08:00:24.464Z,17.10
2023-04-07T08:02:51.423Z,13.50
2023-04-07T08:05:18.549Z,18.33
2023-04-07T08:07:46.903Z,17.40
2023-04-07T08:10:15.180Z,15.93
2023-04-07T08:12:42.032Z,15.25
2023-04-07T08:15:10.359Z,15.13
2023-04-07T08:17:37.946Z,15.68
2023-04-07T08:20:06.070Z,12.60
2023-04-07T08:22:33.054Z,15.93
2023-04-07T08:25:00.148Z,9.25
2023-04-07T08:27:27.029Z,8.75
2023-04-07T08:30:02.045Z,10.93
2023-04-07T08:32:40.892Z,11.30
2023-04-07T08:35:08.422Z,11.82
2023-04-07T08:37:36.816Z,9.65
2023-04-07T08:40:04.344Z,10.75
2023-04-07T08:42:33.445Z,9.35
2023-04-07T08:45:07.399Z,9.25
2023-04-07T08:47:35.912Z,8.95
2023-04-07T08:50:11.104Z,10.43
2023-04-07T08:52:43.634Z,10.50
2023-04-07T08:55:11.454Z,11.23
2023-04-07T08:57:39.067Z,9.02
2023-04-07T09:00:06.601Z,12.45
2023-04-07T09:02:38.414Z,9.50
2023-04-07T09:05:08.046Z,10.88
2023-04-07T09:07:40.380Z,8.00
2023-04-07T09:10:08.204Z,9.63
2023-04-07T09:12:35.471Z,7.97
2023-04-07T09:15:02.422Z,8.57
2023-04-07T09:17:30.019Z,9.05
2023-04-07T09:20:01.035Z,7.88
2023-04-07T09:22:50.785Z,9.63
2023-04-07T09:25:27.358Z,8.35
2023-04-07T09:28:01.813Z,6.80
2023-04-07T09:32:57.208Z,8.23
2023-04-07T09:35:24.742Z,5.82
2023-04-07T09:38:08.686Z,7.22
2023-04-07T09:40:37.355Z,13.70
2023-04-07T09:43:05.663Z,6.82
2023-04-07T09:45:36.147Z,6.93
2023-04-07T09:48:20.128Z,5.00
2023-04-07T09:50:51.029Z,5.15
2023-04-07T09:53:19.268Z,5.35
2023-04-07T09:55:46.421Z,6.68
2023-04-07T09:58:16.978Z,5.18
2023-04-07T10:00:44.338Z,6.18
2023-04-07T10:03:12.196Z,5.75
2023-04-07T10:05:39.445Z,5.65
2023-04-07T10:08:07.076Z,5.82
2023-04-07T10:10:35.444Z,12.68
2023-04-07T10:13:06.155Z,6.55
2023-04-07T10:15:33.726Z,6.60
2023-04-07T10:18:02.931Z,5.78
2023-04-07T10:20:30.503Z,5.70
2023-04-07T10:23:04.389Z,9.10
2023-04-07T10:25:31.850Z,9.05
2023-04-07T10:28:08.094Z,7.63
2023-04-07T10:30:36.360Z,10.07
2023-04-07T10:33:03.657Z,6.07
2023-04-07T10:36:04.703Z,7.10
2023-04-07T10:38:31.760Z,5.20
2023-04-07T10:40:58.617Z,7.32
2023-04-07T10:43:42.289Z,4.40
2023-04-07T10:46:09.243Z,6.28
2023-04-07T10:48:36.427Z,7.28
2023-04-07T10:51:06.186Z,7.03
2023-04-07T10:53:34.189Z,8.35
2023-04-07T10:56:01.279Z,4.88
2023-04-07T10:58:31.991Z,6.15
2023-04-07T11:01:04.857Z,6.43
2023-04-07T11:03:34.832Z,8.18
2023-04-07T11:06:13.445Z,8.55
2023-04-07T11:08:49.534Z,7.07
2023-04-07T11:11:20.914Z,9.15
2023-04-07T11:13:49.354Z,11.70
2023-04-07T11:16:19.458Z,7.03
2023-04-07T11:18:48.279Z,7.95
2023-04-07T11:21:19.696Z,5.32
2023-04-07T11:23:48.002Z,5.68
2023-04-07T11:26:16.187Z,8.10
2023-04-07T11:28:54.207Z,8.18
2023-04-07T11:31:31.886Z,7.80
2023-04-07T11:34:04.886Z,6.90
2023-04-07T11:36:38.731Z,6.07
2023-04-07T11:39:05.948Z,5.03
2023-04-07T11:41:33.869Z,6.43
2023-04-07T11:44:11.413Z,7.35
2023-04-07T11:46:54.782Z,4.97
2023-04-07T11:49:22.976Z,4.68
2023-04-07T11:52:07.311Z,4.22
2023-04-07T11:54:47.282Z,7.32
2023-04-07T11:57:23.618Z,6.45
2023-04-07T11:59:50.999Z,3.50
2023-04-07T12:02:37.079Z,4.43
2023-04-07T12:05:05.350Z,4.55
2023-04-07T12:07:33.311Z,6.18
2023-04-07T12:10:19.405Z,5.32
2023-04-07T12:12:47.004Z,4.30
2023-04-07T12:15:14.695Z,5.43
2023-04-07T12:17:47.526Z,5.50
2023-04-07T12:20:15.572Z,4.05
2023-04-07T12:22:42.533Z,4.13
2023-04-07T12:25:09.840Z,6.72
2023-04-07T12:27:43.392Z,4.68
2023-04-07T12:30:13.021Z,3.72
2023-04-07T12:32:41.281Z,3.72
2023-04-07T12:35:08.307Z,5.03
2023-04-07T12:37:35.398Z,5.20
2023-04-07T12:40:02.206Z,5.55
2023-04-07T12:42:29.034Z,6.50
2023-04-07T12:44:56.658Z,5.18
2023-04-07T12:47:23.539Z,4.18
2023-04-07T12:49:50.562Z,4.85
2023-04-07T12:52:17.527Z,7.55
2023-04-07T12:54:45.414Z,5.32
2023-04-07T12:57:12.442Z,6.22
2023-04-07T12:59:39.479Z,4.43
2023-04-07T13:02:06.917Z,5.78
2023-04-07T13:04:35.261Z,4.70
2023-04-07T13:07:03.352Z,8.98
2023-04-07T13:09:30.374Z,5.38
2023-04-07T13:11:57.999Z,5.97
2023-04-07T13:14:25.066Z,4.45
2023-04-07T13:16:52.106Z,4.60
2023-04-07T13:19:19.244Z,3.92
2023-04-07T13:21:47.801Z,6.93
2023-04-07T13:24:15.868Z,4.97
2023-04-07T13:26:42.844Z,4.97
2023-04-07T13:29:09.746Z,3.85
2023-04-07T13:31:36.646Z,5.20
2023-04-07T13:34:03.806Z,4.93
2023-04-07T13:36:31.180Z,3.35
2023-04-07T13:38:58.097Z,3.28
2023-04-07T13:41:25.049Z,5.70
2023-04-07T13:43:52.181Z,4.13
2023-04-07T13:48:49.558Z,4.00
2023-04-07T13:51:17.154Z,4.28
2023-04-07T13:53:44.080Z,4.72
2023-04-07T13:56:11.060Z,5.32
2023-04-07T13:58:37.855Z,4.45
2023-04-07T14:01:04.745Z,5.03
2023-04-07T14:03:31.892Z,3.30
2023-04-07T14:06:01.123Z,3.75
2023-04-07T14:08:28.656Z,5.03
2023-04-07T14:10:55.712Z,8.80
2023-04-07T14:13:23.053Z,4.88
2023-04-07T14:15:50.720Z,3.60
2023-04-07T14:18:17.781Z,5.35
2023-04-07T14:20:44.849Z,3.83
2023-04-07T14:23:12.228Z,6.20
2023-04-07T14:25:39.329Z,3.78
2023-04-07T14:28:06.393Z,5.07
2023-04-07T14:30:38.708Z,5.85
2023-04-07T14:33:06.313Z,6.47
2023-04-07T14:35:37.114Z,6.45
2023-04-07T14:38:03.988Z,6.43
2023-04-07T14:40:33.577Z,5.60
2023-04-07T14:45:30.829Z,5.18
2023-04-07T14:47:57.859Z,7.68
2023-04-07T14:50:24.937Z,4.45
2023-04-07T14:52:52.012Z,5.13
2023-04-07T14:55:18.968Z,5.10
2023-04-07T14:57:46.087Z,4.63
2023-04-07T15:00:16.024Z,6.10
2023-04-07T15:02:44.436Z,6.60
2023-04-07T15:05:11.574Z,6.13
2023-04-07T15:07:38.590Z,5.93
2023-04-07T15:10:06.101Z,8.00
2023-04-07T15:12:33.504Z,5.35
2023-04-07T15:15:00.556Z,8.55
2023-04-07T15:17:36.662Z,7.70
2023-04-07T15:20:12.131Z,7.07
2023-04-07T15:22:38.954Z,7.43
2023-04-07T15:25:06.322Z,5.10
2023-04-07T15:27:33.115Z,5.82
2023-04-07T15:30:00.632Z,6.35
2023-04-07T15:32:27.636Z,6.90
2023-04-07T15:34:56.749Z,7.88
2023-04-07T15:37:24.579Z,7.25
2023-04-07T15:39:51.434Z,6.68
2023-04-07T15:42:18.280Z,13.57
2023-04-07T15:44:45.336Z,6.97
2023-04-07T15:47:12.158Z,4.82
2023-04-07T15:49:39.157Z,5.43
2023-04-07T15:52:06.532Z,7.43
2023-04-07T15:54:33.609Z,4.80
2023-04-07T15:57:01.120Z,4.95
2023-04-07T15:59:30.734Z,4.60
2023-04-07T16:01:58.082Z,7.10
2023-04-07T16:04:24.973Z,6.15
2023-04-07T16:06:52.003Z,6.18
2023-04-07T16:09:19.228Z,7.07
2023-04-07T16:11:46.098Z,6.70
2023-04-07T16:14:12.951Z,8.00
2023-04-07T16:16:41.440Z,5.72
2023-04-07T16:19:08.498Z,5.35
2023-04-07T16:21:35.577Z,6.22
2023-04-07T16:24:02.801Z,6.75
2023-04-07T16:26:30.897Z,6.32
2023-04-07T16:29:00.001Z,7.30
2023-04-07T16:31:27.015Z,6.88
2023-04-07T16:33:54.084Z,6.47
2023-04-07T16:36:21.299Z,6.90
2023-04-07T16:38:49.723Z,6.18
2023-04-07T16:41:16.831Z,7.22
2023-04-07T16:43:43.926Z,12.63
2023-04-07T16:46:10.947Z,8.65
2023-04-07T16:48:37.765Z,7.93
2023-04-07T16:51:04.840Z,6.18
2023-04-07T16:53:31.848Z,7.65
2023-04-07T16:55:58.918Z,8.32
2023-04-07T16:58:25.986Z,5.90
2023-04-07T17:00:53.081Z,6.82
2023-04-07T17:03:20.119Z,5.88
2023-04-07T17:05:48.286Z,6.20
2023-04-07T17:08:15.526Z,4.93
2023-04-07T17:10:44.314Z,6.47
2023-04-07T17:13:11.304Z,7.47
2023-04-07T17:15:38.481Z,6.13
2023-04-07T17:18:08.136Z,6.13
2023-04-07T17:20:38.522Z,5.55
2023-04-07T17:23:05.593Z,6.22
2023-04-07T17:25:32.458Z,6.30
2023-04-07T17:27:59.279Z,5.68
2023-04-07T17:30:26.164Z,6.35
2023-04-07T17:32:53.704Z,6.68
2023-04-07T17:35:21.287Z,8.43
2023-04-07T17:37:48.605Z,8.63
2023-04-07T17:40:15.538Z,7.20
2023-04-07T17:42:42.994Z,5.88
2023-04-07T17:45:10.885Z,4.63
2023-04-07T17:47:37.917Z,6.15
2023-04-07T17:50:05.270Z,8.57
2023-04-07T17:52:32.269Z,7.32
2023-04-07T17:54:59.401Z,5.93
2023-04-07T17:57:26.269Z,4.38
2023-04-07T17:59:53.420Z,7.22
2023-04-07T18:02:20.555Z,6.53
2023-04-07T18:04:47.679Z,6.85
2023-04-07T18:07:17.785Z,7.93
2023-04-07T18:09:44.951Z,6.03
2023-04-07T18:12:12.279Z,7.43
2023-04-07T18:14:39.976Z,5.93
2023-04-07T18:17:06.864Z,6.47
2023-04-07T18:19:34.025Z,6.45
2023-04-07T18:22:04.080Z,7.13
2023-04-07T18:24:31.258Z,5.65
2023-04-07T18:26:58.227Z,8.32
2023-04-07T18:29:25.002Z,11.13
2023-04-07T18:31:51.892Z,9.18
2023-04-07T18:34:18.913Z,7.93
2023-04-07T18:36:47.501Z,7.57
2023-04-07T18:39:14.619Z,7.10
2023-04-07T18:41:44.774Z,6.80
2023-04-07T18:44:12.505Z,6.03
2023-04-07T18:46:39.659Z,5.53
2023-04-07T18:49:06.619Z,6.18
2023-04-07T18:51:33.588Z,6.68
2023-04-07T18:54:01.638Z,6.65
2023-04-07T18:56:29.941Z,5.53
2023-04-07T18:58:57.089Z,7.97
2023-04-07T19:01:24.074Z,7.63
2023-04-07T19:03:53.761Z,8.50
2023-04-07T19:06:22.645Z,9.80
2023-04-07T19:08:52.233Z,8.07
2023-04-07T19:11:19.117Z,7.55
2023-04-07T19:13:46.436Z,7.40
2023-04-07T19:16:15.547Z,8.90
2023-04-07T19:18:42.392Z,7.95
2023-04-07T19:21:09.277Z,7.70
2023-04-07T19:23:36.157Z,9.05
2023-04-07T19:26:06.615Z,10.13
2023-04-07T19:28:34.593Z,9.98
2023-04-07T19:31:01.527Z,8.38
2023-04-07T19:33:28.385Z,11.07
2023-04-07T19:35:56.278Z,9.45
2023-04-07T19:38:23.138Z,11.48
2023-04-07T19:40:51.349Z,9.05
2023-04-07T19:43:18.205Z,8.93
2023-04-07T19:45:47.935Z,11.50
2023-04-07T19:48:15.463Z,9.50
2023-04-07T19:50:48.154Z,10.10
2023-04-07T19:53:18.635Z,9.10
2023-04-07T19:55:46.209Z,11.60
2023-04-07T19:58:13.419Z,11.15
2023-04-07T20:00:40.730Z,10.25
2023-04-07T20:03:07.740Z,13.55
2023-04-07T20:05:35.122Z,9.80
2023-04-07T20:08:02.000Z,13.20
2023-04-07T20:10:30.234Z,11.40
2023-04-07T20:12:57.102Z,9.02
2023-04-07T20:15:26.872Z,10.15
2023-04-07T20:17:53.845Z,10.45
2023-04-07T20:20:22.248Z,9.50
2023-04-07T20:22:49.226Z,11.90
2023-04-07T20:25:19.158Z,7.35
2023-04-07T20:27:49.072Z,9.45
2023-04-07T20:30:18.981Z,9.70
2023-04-07T20:32:47.001Z,7.63
2023-04-07T20:35:14.403Z,8.20
2023-04-07T20:37:42.065Z,8.48
2023-04-07T20:40:09.869Z,8.23
2023-04-07T20:42:36.988Z,9.85
2023-04-07T20:45:04.884Z,8.77
2023-04-07T20:47:32.292Z,9.32
2023-04-07T20:49:59.419Z,8.38
2023-04-07T20:52:27.360Z,7.40
2023-04-07T20:54:54.229Z,8.30
2023-04-07T20:57:21.116Z,14.15
2023-04-07T20:59:48.110Z,6.97
2023-04-07T21:02:15.124Z,8.52
2023-04-07T21:04:42.034Z,7.65
2023-04-07T21:07:08.918Z,10.80
2023-04-07T21:09:35.786Z,11.27
2023-04-07T21:12:03.572Z,8.85
2023-04-07T21:14:31.960Z,8.18
2023-04-07T21:17:02.151Z,10.63
2023-04-07T21:19:32.439Z,14.63
2023-04-07T21:22:00.472Z,10.98
2023-04-07T21:24:29.879Z,10.85
2023-04-07T21:26:56.763Z,10.35
2023-04-07T21:29:23.811Z,7.50
2023-04-07T21:31:50.816Z,10.57
2023-04-07T21:34:19.732Z,6.88
2023-04-07T21:36:46.570Z,5.97
2023-04-07T21:39:13.521Z,8.82
2023-04-07T21:41:40.369Z,6.53
2023-04-07T21:44:09.494Z,10.82
2023-04-07T21:46:40.948Z,9.02
2023-04-07T21:49:09.335Z,5.57
2023-04-07T21:51:37.584Z,7.57
2023-04-07T21:54:04.380Z,8.00
2023-04-07T21:56:31.369Z,6.47
2023-04-07T21:58:58.708Z,5.15
2023-04-07T22:01:25.710Z,4.93
2023-04-07T22:03:52.698Z,6.13
2023-04-07T22:06:19.589Z,9.02
2023-04-07T22:08:58.534Z,6.07
2023-04-07T22:11:28.282Z,8.85
2023-04-07T22:13:55.371Z,6.70
2023-04-07T22:16:22.283Z,7.75
2023-04-07T22:18:49.416Z,8.23
2023-04-07T22:21:17.005Z,9.77
2023-04-07T22:23:44.433Z,5.85
2023-04-07T22:26:11.330Z,7.10
2023-04-07T22:28:38.108Z,6.43
2023-04-07T22:31:05.266Z,9.20
2023-04-07T22:33:32.095Z,5.82
2023-04-07T22:35:58.918Z,5.25
2023-04-07T22:38:25.944Z,9.70
2023-04-07T22:40:52.804Z,6.55
2023-04-07T22:43:19.689Z,7.90
2023-04-07T22:45:46.591Z,6.32
2023-04-07T22:48:13.690Z,5.18
2023-04-07T22:50:40.680Z,4.97
2023-04-07T22:53:08.396Z,5.38
2023-04-07T22:55:36.222Z,6.55
2023-04-07T22:58:03.042Z,6.95
2023-04-07T23:00:29.934Z,6.32
2023-04-07T23:02:56.909Z,8.25
2023-04-07T23:05:23.980Z,6.95
2023-04-07T23:07:52.071Z,6.50
2023-04-07T23:10:18.958Z,6.70
2023-04-07T23:12:46.397Z,6.90
2023-04-07T23:15:13.361Z,11.18
2023-04-07T23:17:40.497Z,4.90
2023-04-07T23:20:08.134Z,6.53
2023-04-07T23:22:35.133Z,9.60
2023-04-07T23:25:03.118Z,8.27
2023-04-07T23:27:30.063Z,8.00
2023-04-07T23:29:58.351Z,8.55
2023-04-07T23:32:25.172Z,5.47
2023-04-07T23:34:52.087Z,5.05
2023-04-07T23:37:18.907Z,7.05
2023-04-07T23:39:45.920Z,6.25
2023-04-07T23:42:14.851Z,5.88
2023-04-07T23:44:41.645Z,5.28
2023-04-07T23:47:08.480Z,9.15
2023-04-07T23:49:35.318Z,6.82
2023-04-07T23:52:02.612Z,11.25
2023-04-07T23:54:29.396Z,6.88
2023-04-07T23:56:57.105Z,8.48
2023-04-07T23:59:24.047Z,6.13
